sensor_id;sensor_type;location;lat;lon;timestamp;P1;durP1;ratioP1;P2;durP2;ratioP2
75655;SDS011;64252;51.094;13.714;2023-04-25T00:00:24;4.38;;;2.08;;
75655;SDS011;64252;51.094;13.714;2023-04-25T00:02:50;5.18;;;2.42;;
75655;SDS011;64252;51.094;13.714;2023-04-25T00:05:15;5.90;;;2.03;;
75655;SDS011;64252;51.094;13.714;2023-04-25T00:07:41;4.68;;;2.10;;
75655;SDS011;64252;51.094;13.714;2023-04-25T00:10:08;4.30;;;2.25;;
75655;SDS011;64252;51.094;13.714;2023-04-25T00:12:36;5.93;;;2.25;;
75655;SDS011;64252;51.094;13.714;2023-04-25T00:15:02;7.82;;;2.60;;
75655;SDS011;64252;51.094;13.714;2023-04-25T00:17:28;9.55;;;3.63;;
75655;SDS011;64252;51.094;13.714;2023-04-25T00:19:53;10.20;;;3.53;;
75655;SDS011;64252;51.094;13.714;2023-04-25T00:22:20;6.60;;;2.78;;
75655;SDS011;64252;51.094;13.714;2023-04-25T00:24:46;5.57;;;2.22;;
75655;SDS011;64252;51.094;13.714;2023-04-25T00:27:11;4.53;;;2.20;;
75655;SDS011;64252;51.094;13.714;2023-04-25T00:29:37;6.60;;;2.85;;
75655;SDS011;64252;51.094;13.714;2023-04-25T00:32:02;13.43;;;4.30;;
75655;SDS011;64252;51.094;13.714;2023-04-25T00:34:28;8.65;;;3.20;;
75655;SDS011;64252;51.094;13.714;2023-04-25T00:36:54;5.80;;;2.70;;
75655;SDS011;64252;51.094;13.714;2023-04-25T00:39:19;7.55;;;2.55;;
75655;SDS011;64252;51.094;13.714;2023-04-25T00:41:45;5.20;;;2.40;;
75655;SDS011;64252;51.094;13.714;2023-04-25T00:44:11;6.40;;;2.47;;
75655;SDS011;64252;51.094;13.714;2023-04-25T00:46:37;10.52;;;4.03;;
75655;SDS011;64252;51.094;13.714;2023-04-25T00:49:04;11.85;;;4.30;;
75655;SDS011;64252;51.094;13.714;2023-04-25T00:51:30;18.77;;;5.90;;
75655;SDS011;64252;51.094;13.714;2023-04-25T00:53:56;8.98;;;3.38;;
75655;SDS011;64252;51.094;13.714;2023-04-25T00:56:22;9.52;;;3.80;;
75655;SDS011;64252;51.094;13.714;2023-04-25T00:58:48;8.38;;;3.67;;
75655;SDS011;64252;51.094;13.714;2023-04-25T01:01:16;13.48;;;5.00;;
75655;SDS011;64252;51.094;13.714;2023-04-25T01:03:42;12.90;;;5.45;;
75655;SDS011;64252;51.094;13.714;2023-04-25T01:06:09;11.90;;;4.75;;
75655;SDS011;64252;51.094;13.714;2023-04-25T01:08:37;9.48;;;3.22;;
75655;SDS011;64252;51.094;13.714;2023-04-25T01:11:03;10.65;;;4.07;;
75655;SDS011;64252;51.094;13.714;2023-04-25T01:13:30;12.35;;;4.90;;
75655;SDS011;64252;51.094;13.714;2023-04-25T01:15:57;14.57;;;5.60;;
75655;SDS011;64252;51.094;13.714;2023-04-25T01:18:23;14.40;;;5.60;;
75655;SDS011;64252;51.094;13.714;2023-04-25T01:20:50;12.38;;;5.22;;
75655;SDS011;64252;51.094;13.714;2023-04-25T01:23:18;9.15;;;4.30;;
75655;SDS011;64252;51.094;13.714;2023-04-25T01:25:45;10.90;;;4.90;;
75655;SDS011;64252;51.094;13.714;2023-04-25T01:28:12;14.38;;;5.15;;
75655;SDS011;64252;51.094;13.714;2023-04-25T01:30:38;12.45;;;5.47;;
75655;SDS011;64252;51.094;13.714;2023-04-25T01:33:04;10.98;;;4.13;;
75655;SDS011;64252;51.094;13.714;2023-04-25T01:35:32;8.27;;;3.78;;
75655;SDS011;64252;51.094;13.714;2023-04-25T01:37:58;7.97;;;3.50;;
75655;SDS011;64252;51.094;13.714;2023-04-25T01:40:24;7.63;;;3.55;;
75655;SDS011;64252;51.094;13.714;2023-04-25T01:42:50;9.32;;;4.32;;
75655;SDS011;64252;51.094;13.714;2023-04-25T01:45:16;7.32;;;3.97;;
75655;SDS011;64252;51.094;13.714;2023-04-25T01:47:43;6.97;;;3.25;;
75655;SDS011;64252;51.094;13.714;2023-04-25T01:50:14;6.15;;;3.00;;
75655;SDS011;64252;51.094;13.714;2023-04-25T01:52:40;6.15;;;3.05;;
75655;SDS011;64252;51.094;13.714;2023-04-25T01:55:07;8.52;;;3.17;;
75655;SDS011;64252;51.094;13.714;2023-04-25T01:57:35;6.72;;;2.95;;
75655;SDS011;64252;51.094;13.714;2023-04-25T02:00:02;6.25;;;3.17;;
75655;SDS011;64252;51.094;13.714;2023-04-25T02:02:38;5.75;;;3.20;;
75655;SDS011;64252;51.094;13.714;2023-04-25T02:05:06;4.07;;;2.33;;
75655;SDS011;64252;51.094;13.714;2023-04-25T02:10:01;6.50;;;2.80;;
75655;SDS011;64252;51.094;13.714;2023-04-25T02:12:31;5.03;;;2.67;;
75655;SDS011;64252;51.094;13.714;2023-04-25T02:15:23;8.00;;;3.30;;
75655;SDS011;64252;51.094;13.714;2023-04-25T02:17:52;5.68;;;2.83;;
75655;SDS011;64252;51.094;13.714;2023-04-25T02:20:20;5.57;;;3.10;;
75655;SDS011;64252;51.094;13.714;2023-04-25T02:22:47;7.03;;;3.00;;
75655;SDS011;64252;51.094;13.714;2023-04-25T02:25:13;6.28;;;3.20;;
75655;SDS011;64252;51.094;13.714;2023-04-25T02:27:39;7.05;;;3.35;;
75655;SDS011;64252;51.094;13.714;2023-04-25T02:30:06;11.02;;;3.55;;
75655;SDS011;64252;51.094;13.714;2023-04-25T02:32:32;8.07;;;3.28;;
75655;SDS011;64252;51.094;13.714;2023-04-25T02:34:59;8.02;;;3.42;;
75655;SDS011;64252;51.094;13.714;2023-04-25T02:37:29;6.70;;;3.22;;
75655;SDS011;64252;51.094;13.714;2023-04-25T02:39:55;7.88;;;2.97;;
75655;SDS011;64252;51.094;13.714;2023-04-25T02:42:21;6.03;;;2.83;;
75655;SDS011;64252;51.094;13.714;2023-04-25T02:44:47;6.35;;;3.15;;
75655;SDS011;64252;51.094;13.714;2023-04-25T02:47:12;6.28;;;3.20;;
75655;SDS011;64252;51.094;13.714;2023-04-25T02:49:38;6.68;;;3.55;;
75655;SDS011;64252;51.094;13.714;2023-04-25T02:52:03;5.85;;;2.85;;
75655;SDS011;64252;51.094;13.714;2023-04-25T02:54:29;5.90;;;3.22;;
75655;SDS011;64252;51.094;13.714;2023-04-25T02:56:56;7.20;;;3.10;;
75655;SDS011;64252;51.094;13.714;2023-04-25T02:59:26;8.68;;;3.97;;
75655;SDS011;64252;51.094;13.714;2023-04-25T03:01:51;6.45;;;3.53;;
75655;SDS011;64252;51.094;13.714;2023-04-25T03:04:17;8.57;;;3.47;;
75655;SDS011;64252;51.094;13.714;2023-04-25T03:06:44;7.18;;;3.47;;
75655;SDS011;64252;51.094;13.714;2023-04-25T03:09:09;6.35;;;3.42;;
75655;SDS011;64252;51.094;13.714;2023-04-25T03:11:36;7.82;;;3.83;;
75655;SDS011;64252;51.094;13.714;2023-04-25T03:14:04;7.50;;;3.75;;
75655;SDS011;64252;51.094;13.714;2023-04-25T03:16:29;7.72;;;3.47;;
75655;SDS011;64252;51.094;13.714;2023-04-25T03:18:56;8.60;;;3.95;;
75655;SDS011;64252;51.094;13.714;2023-04-25T03:21:22;6.20;;;3.90;;
75655;SDS011;64252;51.094;13.714;2023-04-25T03:23:48;6.80;;;3.78;;
75655;SDS011;64252;51.094;13.714;2023-04-25T03:26:13;8.20;;;4.10;;
75655;SDS011;64252;51.094;13.714;2023-04-25T03:28:39;6.00;;;3.50;;
75655;SDS011;64252;51.094;13.714;2023-04-25T03:31:06;8.95;;;3.47;;
75655;SDS011;64252;51.094;13.714;2023-04-25T03:33:31;11.02;;;4.38;;
75655;SDS011;64252;51.094;13.714;2023-04-25T03:35:57;6.60;;;4.00;;
75655;SDS011;64252;51.094;13.714;2023-04-25T03:38:23;9.07;;;4.10;;
75655;SDS011;64252;51.094;13.714;2023-04-25T03:40:49;8.30;;;4.20;;
75655;SDS011;64252;51.094;13.714;2023-04-25T03:43:23;7.63;;;3.65;;
75655;SDS011;64252;51.094;13.714;2023-04-25T03:45:55;9.80;;;3.80;;
75655;SDS011;64252;51.094;13.714;2023-04-25T03:48:21;8.57;;;4.18;;
75655;SDS011;64252;51.094;13.714;2023-04-25T03:50:50;6.55;;;3.53;;
75655;SDS011;64252;51.094;13.714;2023-04-25T03:53:15;9.82;;;4.10;;
75655;SDS011;64252;51.094;13.714;2023-04-25T03:56:01;9.52;;;4.13;;
75655;SDS011;64252;51.094;13.714;2023-04-25T03:58:31;6.45;;;3.70;;
75655;SDS011;64252;51.094;13.714;2023-04-25T04:00:56;9.68;;;3.75;;
75655;SDS011;64252;51.094;13.714;2023-04-25T04:03:22;7.18;;;3.47;;
75655;SDS011;64252;51.094;13.714;2023-04-25T04:05:48;8.98;;;4.47;;
75655;SDS011;64252;51.094;13.714;2023-04-25T04:08:14;9.23;;;4.50;;
75655;SDS011;64252;51.094;13.714;2023-04-25T04:10:40;11.02;;;5.25;;
75655;SDS011;64252;51.094;13.714;2023-04-25T04:13:07;9.45;;;4.30;;
75655;SDS011;64252;51.094;13.714;2023-04-25T04:15:32;7.85;;;3.80;;
75655;SDS011;64252;51.094;13.714;2023-04-25T04:17:58;8.27;;;4.65;;
75655;SDS011;64252;51.094;13.714;2023-04-25T04:20:28;7.63;;;4.07;;
75655;SDS011;64252;51.094;13.714;2023-04-25T04:22:55;8.65;;;4.85;;
75655;SDS011;64252;51.094;13.714;2023-04-25T04:25:25;10.75;;;4.50;;
75655;SDS011;64252;51.094;13.714;2023-04-25T04:28:03;8.38;;;4.35;;
75655;SDS011;64252;51.094;13.714;2023-04-25T04:33:18;10.38;;;4.45;;
75655;SDS011;64252;51.094;13.714;2023-04-25T04:35:45;8.90;;;4.35;;
75655;SDS011;64252;51.094;13.714;2023-04-25T04:38:12;8.15;;;4.35;;
75655;SDS011;64252;51.094;13.714;2023-04-25T04:40:41;10.25;;;5.00;;
75655;SDS011;64252;51.094;13.714;2023-04-25T04:43:23;11.38;;;4.97;;
75655;SDS011;64252;51.094;13.714;2023-04-25T04:46:06;9.70;;;4.82;;
75655;SDS011;64252;51.094;13.714;2023-04-25T04:48:54;11.80;;;4.85;;
75655;SDS011;64252;51.094;13.714;2023-04-25T04:51:39;11.20;;;4.85;;
75655;SDS011;64252;51.094;13.714;2023-04-25T04:54:28;8.35;;;4.75;;
75655;SDS011;64252;51.094;13.714;2023-04-25T04:57:14;7.80;;;4.40;;
75655;SDS011;64252;51.094;13.714;2023-04-25T05:00:15;9.48;;;4.10;;
75655;SDS011;64252;51.094;13.714;2023-04-25T05:03:10;8.95;;;4.90;;
75655;SDS011;64252;51.094;13.714;2023-04-25T05:06:09;8.35;;;4.68;;
75655;SDS011;64252;51.094;13.714;2023-04-25T05:09:04;10.65;;;5.20;;
75655;SDS011;64252;51.094;13.714;2023-04-25T05:11:55;9.73;;;4.93;;
75655;SDS011;64252;51.094;13.714;2023-04-25T05:14:48;9.38;;;5.03;;
75655;SDS011;64252;51.094;13.714;2023-04-25T05:17:32;10.70;;;4.95;;
75655;SDS011;64252;51.094;13.714;2023-04-25T05:20:16;7.85;;;4.55;;
75655;SDS011;64252;51.094;13.714;2023-04-25T05:23:10;9.27;;;4.03;;
75655;SDS011;64252;51.094;13.714;2023-04-25T05:26:00;7.82;;;4.38;;
75655;SDS011;64252;51.094;13.714;2023-04-25T05:28:45;9.23;;;4.32;;
75655;SDS011;64252;51.094;13.714;2023-04-25T05:31:35;10.85;;;4.38;;
75655;SDS011;64252;51.094;13.714;2023-04-25T05:34:07;11.27;;;4.93;;
75655;SDS011;64252;51.094;13.714;2023-04-25T05:36:52;11.20;;;4.40;;
75655;SDS011;64252;51.094;13.714;2023-04-25T05:39:19;12.50;;;3.92;;
75655;SDS011;64252;51.094;13.714;2023-04-25T05:42:22;6.60;;;4.05;;
75655;SDS011;64252;51.094;13.714;2023-04-25T05:44:51;7.10;;;3.78;;
75655;SDS011;64252;51.094;13.714;2023-04-25T05:47:32;19.00;;;9.43;;
75655;SDS011;64252;51.094;13.714;2023-04-25T05:50:09;9.95;;;4.32;;
75655;SDS011;64252;51.094;13.714;2023-04-25T05:53:04;7.60;;;3.35;;
75655;SDS011;64252;51.094;13.714;2023-04-25T05:55:39;6.93;;;3.25;;
75655;SDS011;64252;51.094;13.714;2023-04-25T05:58:20;6.72;;;3.70;;
75655;SDS011;64252;51.094;13.714;2023-04-25T06:00:46;6.32;;;3.38;;
75655;SDS011;64252;51.094;13.714;2023-04-25T06:03:12;7.07;;;3.53;;
75655;SDS011;64252;51.094;13.714;2023-04-25T06:05:43;9.23;;;3.70;;
75655;SDS011;64252;51.094;13.714;2023-04-25T06:08:09;7.00;;;3.33;;
75655;SDS011;64252;51.094;13.714;2023-04-25T06:10:36;6.82;;;3.45;;
75655;SDS011;64252;51.094;13.714;2023-04-25T06:13:02;13.50;;;4.70;;
75655;SDS011;64252;51.094;13.714;2023-04-25T06:15:30;11.52;;;4.25;;
75655;SDS011;64252;51.094;13.714;2023-04-25T06:17:59;8.82;;;4.13;;
75655;SDS011;64252;51.094;13.714;2023-04-25T06:20:25;11.05;;;4.03;;
75655;SDS011;64252;51.094;13.714;2023-04-25T06:22:52;12.32;;;4.35;;
75655;SDS011;64252;51.094;13.714;2023-04-25T06:25:19;9.00;;;3.70;;
75655;SDS011;64252;51.094;13.714;2023-04-25T06:27:45;6.07;;;3.30;;
75655;SDS011;64252;51.094;13.714;2023-04-25T06:30:12;6.80;;;3.10;;
75655;SDS011;64252;51.094;13.714;2023-04-25T06:32:38;8.70;;;4.68;;
75655;SDS011;64252;51.094;13.714;2023-04-25T06:35:04;9.30;;;4.18;;
75655;SDS011;64252;51.094;13.714;2023-04-25T06:37:32;9.82;;;3.17;;
75655;SDS011;64252;51.094;13.714;2023-04-25T06:39:58;7.75;;;2.95;;
75655;SDS011;64252;51.094;13.714;2023-04-25T06:42:23;8.40;;;2.88;;
75655;SDS011;64252;51.094;13.714;2023-04-25T06:44:56;8.50;;;3.40;;
75655;SDS011;64252;51.094;13.714;2023-04-25T06:47:21;7.55;;;3.50;;
75655;SDS011;64252;51.094;13.714;2023-04-25T06:49:48;8.77;;;3.38;;
75655;SDS011;64252;51.094;13.714;2023-04-25T06:52:13;7.75;;;3.10;;
75655;SDS011;64252;51.094;13.714;2023-04-25T06:54:40;8.80;;;3.05;;
75655;SDS011;64252;51.094;13.714;2023-04-25T06:57:20;9.55;;;2.45;;
75655;SDS011;64252;51.094;13.714;2023-04-25T06:59:46;7.95;;;3.15;;
75655;SDS011;64252;51.094;13.714;2023-04-25T07:02:12;7.18;;;3.53;;
75655;SDS011;64252;51.094;13.714;2023-04-25T07:04:38;5.07;;;2.45;;
75655;SDS011;64252;51.094;13.714;2023-04-25T07:07:04;6.57;;;1.95;;
75655;SDS011;64252;51.094;13.714;2023-04-25T07:09:39;7.30;;;2.30;;
75655;SDS011;64252;51.094;13.714;2023-04-25T07:12:04;7.03;;;2.33;;
75655;SDS011;64252;51.094;13.714;2023-04-25T07:14:30;8.50;;;3.70;;
75655;SDS011;64252;51.094;13.714;2023-04-25T07:16:56;6.35;;;2.20;;
75655;SDS011;64252;51.094;13.714;2023-04-25T07:19:24;4.57;;;2.00;;
75655;SDS011;64252;51.094;13.714;2023-04-25T07:21:52;8.38;;;2.72;;
75655;SDS011;64252;51.094;13.714;2023-04-25T07:24:18;10.13;;;2.25;;
75655;SDS011;64252;51.094;13.714;2023-04-25T07:26:46;5.32;;;2.30;;
75655;SDS011;64252;51.094;13.714;2023-04-25T07:29:30;5.15;;;2.05;;
75655;SDS011;64252;51.094;13.714;2023-04-25T07:31:58;9.45;;;2.60;;
75655;SDS011;64252;51.094;13.714;2023-04-25T07:34:24;5.57;;;2.03;;
75655;SDS011;64252;51.094;13.714;2023-04-25T07:36:49;3.40;;;1.70;;
75655;SDS011;64252;51.094;13.714;2023-04-25T07:39:16;7.38;;;2.42;;
75655;SDS011;64252;51.094;13.714;2023-04-25T07:41:43;6.82;;;2.10;;
75655;SDS011;64252;51.094;13.714;2023-04-25T07:44:13;5.88;;;2.10;;
75655;SDS011;64252;51.094;13.714;2023-04-25T07:46:39;5.68;;;1.65;;
75655;SDS011;64252;51.094;13.714;2023-04-25T07:49:06;6.13;;;2.20;;
75655;SDS011;64252;51.094;13.714;2023-04-25T07:51:31;6.30;;;1.98;;
75655;SDS011;64252;51.094;13.714;2023-04-25T07:54:03;5.88;;;1.85;;
75655;SDS011;64252;51.094;13.714;2023-04-25T07:56:29;8.02;;;1.92;;
75655;SDS011;64252;51.094;13.714;2023-04-25T07:58:54;6.03;;;2.10;;
75655;SDS011;64252;51.094;13.714;2023-04-25T08:01:21;6.47;;;2.20;;
75655;SDS011;64252;51.094;13.714;2023-04-25T08:03:58;6.57;;;1.80;;
75655;SDS011;64252;51.094;13.714;2023-04-25T08:06:44;7.05;;;2.50;;
75655;SDS011;64252;51.094;13.714;2023-04-25T08:09:18;4.90;;;2.20;;
75655;SDS011;64252;51.094;13.714;2023-04-25T08:11:43;6.05;;;2.22;;
75655;SDS011;64252;51.094;13.714;2023-04-25T08:14:12;5.00;;;2.00;;
75655;SDS011;64252;51.094;13.714;2023-04-25T08:16:39;4.32;;;1.92;;
75655;SDS011;64252;51.094;13.714;2023-04-25T08:19:05;7.50;;;2.60;;
75655;SDS011;64252;51.094;13.714;2023-04-25T08:21:31;5.22;;;2.00;;
75655;SDS011;64252;51.094;13.714;2023-04-25T08:24:00;8.68;;;2.40;;
75655;SDS011;64252;51.094;13.714;2023-04-25T08:26:32;6.07;;;2.28;;
75655;SDS011;64252;51.094;13.714;2023-04-25T08:28:58;4.10;;;2.25;;
75655;SDS011;64252;51.094;13.714;2023-04-25T08:31:24;6.50;;;1.98;;
75655;SDS011;64252;51.094;13.714;2023-04-25T08:33:57;5.28;;;2.00;;
75655;SDS011;64252;51.094;13.714;2023-04-25T08:36:29;5.43;;;2.17;;
75655;SDS011;64252;51.094;13.714;2023-04-25T08:38:57;4.68;;;2.03;;
75655;SDS011;64252;51.094;13.714;2023-04-25T08:41:23;6.65;;;2.35;;
75655;SDS011;64252;51.094;13.714;2023-04-25T08:43:49;5.28;;;2.28;;
75655;SDS011;64252;51.094;13.714;2023-04-25T08:46:17;6.22;;;2.38;;
75655;SDS011;64252;51.094;13.714;2023-04-25T08:48:55;4.78;;;2.05;;
75655;SDS011;64252;51.094;13.714;2023-04-25T08:51:25;4.78;;;1.80;;
75655;SDS011;64252;51.094;13.714;2023-04-25T08:53:53;5.07;;;1.88;;
75655;SDS011;64252;51.094;13.714;2023-04-25T08:56:19;7.20;;;2.03;;
75655;SDS011;64252;51.094;13.714;2023-04-25T08:58:48;5.90;;;2.97;;
75655;SDS011;64252;51.094;13.714;2023-04-25T09:01:16;5.05;;;2.30;;
75655;SDS011;64252;51.094;13.714;2023-04-25T09:03:48;4.32;;;2.17;;
75655;SDS011;64252;51.094;13.714;2023-04-25T09:06:14;5.38;;;2.25;;
75655;SDS011;64252;51.094;13.714;2023-04-25T09:08:42;6.68;;;2.85;;
75655;SDS011;64252;51.094;13.714;2023-04-25T09:11:08;7.85;;;3.08;;
75655;SDS011;64252;51.094;13.714;2023-04-25T09:13:35;8.27;;;2.45;;
75655;SDS011;64252;51.094;13.714;2023-04-25T09:16:09;5.53;;;2.55;;
75655;SDS011;64252;51.094;13.714;2023-04-25T09:18:52;8.80;;;2.90;;
75655;SDS011;64252;51.094;13.714;2023-04-25T09:21:21;6.72;;;3.25;;
75655;SDS011;64252;51.094;13.714;2023-04-25T09:23:48;7.15;;;2.97;;
75655;SDS011;64252;51.094;13.714;2023-04-25T09:26:17;8.65;;;3.38;;
75655;SDS011;64252;51.094;13.714;2023-04-25T09:28:45;7.90;;;4.47;;
75655;SDS011;64252;51.094;13.714;2023-04-25T09:31:21;9.07;;;4.00;;
75655;SDS011;64252;51.094;13.714;2023-04-25T09:33:50;7.38;;;3.83;;
75655;SDS011;64252;51.094;13.714;2023-04-25T09:36:26;7.72;;;3.33;;
75655;SDS011;64252;51.094;13.714;2023-04-25T09:39:00;6.03;;;2.42;;
75655;SDS011;64252;51.094;13.714;2023-04-25T09:41:32;7.07;;;2.80;;
75655;SDS011;64252;51.094;13.714;2023-04-25T09:44:04;6.00;;;2.67;;
75655;SDS011;64252;51.094;13.714;2023-04-25T09:46:35;5.75;;;2.63;;
75655;SDS011;64252;51.094;13.714;2023-04-25T09:49:16;6.75;;;2.60;;
75655;SDS011;64252;51.094;13.714;2023-04-25T09:52:08;4.35;;;2.35;;
75655;SDS011;64252;51.094;13.714;2023-04-25T09:54:45;4.10;;;1.92;;
75655;SDS011;64252;51.094;13.714;2023-04-25T09:57:20;6.70;;;2.30;;
75655;SDS011;64252;51.094;13.714;2023-04-25T10:02:16;7.75;;;2.10;;
75655;SDS011;64252;51.094;13.714;2023-04-25T10:04:49;5.15;;;1.80;;
75655;SDS011;64252;51.094;13.714;2023-04-25T10:07:32;4.60;;;2.00;;
75655;SDS011;64252;51.094;13.714;2023-04-25T10:10:06;8.68;;;2.50;;
75655;SDS011;64252;51.094;13.714;2023-04-25T10:12:32;5.95;;;2.08;;
75655;SDS011;64252;51.094;13.714;2023-04-25T10:14:59;5.93;;;2.10;;
75655;SDS011;64252;51.094;13.714;2023-04-25T10:17:26;4.70;;;1.90;;
75655;SDS011;64252;51.094;13.714;2023-04-25T10:19:53;3.97;;;1.70;;
75655;SDS011;64252;51.094;13.714;2023-04-25T10:22:29;6.43;;;2.63;;
75655;SDS011;64252;51.094;13.714;2023-04-25T10:24:59;4.75;;;1.90;;
75655;SDS011;64252;51.094;13.714;2023-04-25T10:27:28;5.07;;;2.13;;
75655;SDS011;64252;51.094;13.714;2023-04-25T10:30:27;6.15;;;2.97;;
75655;SDS011;64252;51.094;13.714;2023-04-25T10:32:46;5.47;;;2.55;;
75655;SDS011;64252;51.094;13.714;2023-04-25T10:35:14;5.82;;;2.70;;
75655;SDS011;64252;51.094;13.714;2023-04-25T10:38:03;6.40;;;2.60;;
75655;SDS011;64252;51.094;13.714;2023-04-25T10:40:31;5.97;;;2.53;;
75655;SDS011;64252;51.094;13.714;2023-04-25T10:43:33;7.63;;;2.60;;
75655;SDS011;64252;51.094;13.714;2023-04-25T10:46:00;5.15;;;2.65;;
75655;SDS011;64252;51.094;13.714;2023-04-25T10:48:26;5.57;;;2.78;;
75655;SDS011;64252;51.094;13.714;2023-04-25T10:51:08;7.25;;;3.78;;
75655;SDS011;64252;51.094;13.714;2023-04-25T10:53:36;7.18;;;3.03;;
75655;SDS011;64252;51.094;13.714;2023-04-25T10:56:18;6.80;;;2.85;;
75655;SDS011;64252;51.094;13.714;2023-04-25T10:58:47;8.00;;;3.00;;
75655;SDS011;64252;51.094;13.714;2023-04-25T11:01:15;6.25;;;3.22;;
75655;SDS011;64252;51.094;13.714;2023-04-25T11:03:45;7.55;;;3.63;;
75655;SDS011;64252;51.094;13.714;2023-04-25T11:06:20;8.93;;;3.33;;
75655;SDS011;64252;51.094;13.714;2023-04-25T11:08:51;8.38;;;2.97;;
75655;SDS011;64252;51.094;13.714;2023-04-25T11:11:17;7.90;;;3.28;;
75655;SDS011;64252;51.094;13.714;2023-04-25T11:13:44;8.88;;;3.40;;
75655;SDS011;64252;51.094;13.714;2023-04-25T11:18:40;5.95;;;2.65;;
75655;SDS011;64252;51.094;13.714;2023-04-25T11:21:10;7.80;;;2.50;;
75655;SDS011;64252;51.094;13.714;2023-04-25T11:23:36;9.10;;;2.40;;
75655;SDS011;64252;51.094;13.714;2023-04-25T11:26:04;5.63;;;2.40;;
75655;SDS011;64252;51.094;13.714;2023-04-25T11:28:30;5.80;;;2.25;;
75655;SDS011;64252;51.094;13.714;2023-04-25T11:30:56;6.05;;;1.90;;
75655;SDS011;64252;51.094;13.714;2023-04-25T11:33:26;4.53;;;1.35;;
75655;SDS011;64252;51.094;13.714;2023-04-25T11:35:55;2.90;;;0.93;;
75655;SDS011;64252;51.094;13.714;2023-04-25T11:38:24;5.10;;;1.08;;
75655;SDS011;64252;51.094;13.714;2023-04-25T11:40:51;5.43;;;0.98;;
75655;SDS011;64252;51.094;13.714;2023-04-25T11:43:20;4.18;;;1.60;;
75655;SDS011;64252;51.094;13.714;2023-04-25T11:45:48;4.88;;;1.05;;
75655;SDS011;64252;51.094;13.714;2023-04-25T11:48:15;3.50;;;1.02;;
75655;SDS011;64252;51.094;13.714;2023-04-25T11:50:41;3.25;;;1.20;;
75655;SDS011;64252;51.094;13.714;2023-04-25T11:53:08;5.68;;;1.27;;
75655;SDS011;64252;51.094;13.714;2023-04-25T11:55:34;5.50;;;1.48;;
75655;SDS011;64252;51.094;13.714;2023-04-25T11:58:01;3.70;;;1.15;;
75655;SDS011;64252;51.094;13.714;2023-04-25T12:00:28;8.68;;;1.45;;
75655;SDS011;64252;51.094;13.714;2023-04-25T12:02:54;3.83;;;1.42;;
75655;SDS011;64252;51.094;13.714;2023-04-25T12:05:27;3.28;;;1.17;;
75655;SDS011;64252;51.094;13.714;2023-04-25T12:08:08;5.53;;;1.40;;
75655;SDS011;64252;51.094;13.714;2023-04-25T12:10:42;6.18;;;1.73;;
75655;SDS011;64252;51.094;13.714;2023-04-25T12:13:20;6.43;;;1.55;;
75655;SDS011;64252;51.094;13.714;2023-04-25T12:15:47;4.63;;;1.45;;
75655;SDS011;64252;51.094;13.714;2023-04-25T12:18:13;4.57;;;1.77;;
75655;SDS011;64252;51.094;13.714;2023-04-25T12:20:38;8.77;;;1.75;;
75655;SDS011;64252;51.094;13.714;2023-04-25T12:23:07;6.25;;;1.60;;
75655;SDS011;64252;51.094;13.714;2023-04-25T12:25:39;6.55;;;1.85;;
75655;SDS011;64252;51.094;13.714;2023-04-25T12:33:21;10.20;;;2.30;;
75655;SDS011;64252;51.094;13.714;2023-04-25T12:35:47;8.27;;;1.95;;
75655;SDS011;64252;51.094;13.714;2023-04-25T12:40:51;10.57;;;2.47;;
75655;SDS011;64252;51.094;13.714;2023-04-25T12:43:17;7.10;;;1.80;;
75655;SDS011;64252;51.094;13.714;2023-04-25T12:45:50;9.30;;;2.03;;
75655;SDS011;64252;51.094;13.714;2023-04-25T12:48:17;6.72;;;1.70;;
75655;SDS011;64252;51.094;13.714;2023-04-25T12:50:43;8.07;;;2.17;;
75655;SDS011;64252;51.094;13.714;2023-04-25T12:53:09;8.45;;;2.15;;
75655;SDS011;64252;51.094;13.714;2023-04-25T12:55:35;8.32;;;2.60;;
75655;SDS011;64252;51.094;13.714;2023-04-25T12:58:01;7.50;;;2.38;;
75655;SDS011;64252;51.094;13.714;2023-04-25T13:00:28;7.50;;;1.83;;
75655;SDS011;64252;51.094;13.714;2023-04-25T13:02:55;7.88;;;2.30;;
75655;SDS011;64252;51.094;13.714;2023-04-25T13:05:21;7.90;;;2.10;;
75655;SDS011;64252;51.094;13.714;2023-04-25T13:07:46;7.13;;;1.88;;
75655;SDS011;64252;51.094;13.714;2023-04-25T13:10:12;9.73;;;2.60;;
75655;SDS011;64252;51.094;13.714;2023-04-25T13:12:37;8.80;;;2.03;;
75655;SDS011;64252;51.094;13.714;2023-04-25T13:15:03;7.78;;;2.63;;
75655;SDS011;64252;51.094;13.714;2023-04-25T13:17:29;10.60;;;2.60;;
75655;SDS011;64252;51.094;13.714;2023-04-25T13:19:55;10.52;;;2.90;;
75655;SDS011;64252;51.094;13.714;2023-04-25T13:22:20;12.27;;;2.65;;
75655;SDS011;64252;51.094;13.714;2023-04-25T13:24:46;11.32;;;2.53;;
75655;SDS011;64252;51.094;13.714;2023-04-25T13:27:12;11.25;;;2.72;;
75655;SDS011;64252;51.094;13.714;2023-04-25T13:29:38;11.20;;;2.53;;
75655;SDS011;64252;51.094;13.714;2023-04-25T13:32:05;9.75;;;2.55;;
75655;SDS011;64252;51.094;13.714;2023-04-25T13:34:32;7.80;;;2.53;;
75655;SDS011;64252;51.094;13.714;2023-04-25T13:36:58;7.88;;;1.88;;
75655;SDS011;64252;51.094;13.714;2023-04-25T13:39:25;9.93;;;2.20;;
75655;SDS011;64252;51.094;13.714;2023-04-25T13:41:50;10.73;;;2.40;;
75655;SDS011;64252;51.094;13.714;2023-04-25T13:44:16;7.32;;;2.05;;
75655;SDS011;64252;51.094;13.714;2023-04-25T13:46:42;10.15;;;2.50;;
75655;SDS011;64252;51.094;13.714;2023-04-25T13:49:07;7.70;;;2.22;;
75655;SDS011;64252;51.094;13.714;2023-04-25T13:51:35;6.28;;;2.00;;
75655;SDS011;64252;51.094;13.714;2023-04-25T13:54:01;4.65;;;1.90;;
75655;SDS011;64252;51.094;13.714;2023-04-25T13:56:26;9.48;;;2.22;;
75655;SDS011;64252;51.094;13.714;2023-04-25T13:58:52;10.13;;;2.70;;
75655;SDS011;64252;51.094;13.714;2023-04-25T14:01:18;10.77;;;2.15;;
75655;SDS011;64252;51.094;13.714;2023-04-25T14:03:45;9.18;;;2.50;;
75655;SDS011;64252;51.094;13.714;2023-04-25T14:06:11;10.88;;;2.38;;
75655;SDS011;64252;51.094;13.714;2023-04-25T14:08:38;8.20;;;2.58;;
75655;SDS011;64252;51.094;13.714;2023-04-25T14:11:04;10.07;;;2.90;;
75655;SDS011;64252;51.094;13.714;2023-04-25T14:13:29;8.75;;;2.05;;
75655;SDS011;64252;51.094;13.714;2023-04-25T14:15:55;10.02;;;2.17;;
75655;SDS011;64252;51.094;13.714;2023-04-25T14:18:21;10.05;;;2.70;;
75655;SDS011;64252;51.094;13.714;2023-04-25T14:20:46;10.85;;;2.35;;
75655;SDS011;64252;51.094;13.714;2023-04-25T14:23:12;8.80;;;2.30;;
75655;SDS011;64252;51.094;13.714;2023-04-25T14:25:37;6.82;;;2.15;;
75655;SDS011;64252;51.094;13.714;2023-04-25T14:28:04;13.20;;;2.22;;
75655;SDS011;64252;51.094;13.714;2023-04-25T14:30:30;8.45;;;2.40;;
75655;SDS011;64252;51.094;13.714;2023-04-25T14:32:55;8.82;;;2.85;;
75655;SDS011;64252;51.094;13.714;2023-04-25T14:35:21;8.68;;;2.30;;
75655;SDS011;64252;51.094;13.714;2023-04-25T14:37:46;8.82;;;2.70;;
75655;SDS011;64252;51.094;13.714;2023-04-25T14:40:12;9.35;;;2.63;;
75655;SDS011;64252;51.094;13.714;2023-04-25T14:42:40;8.43;;;2.40;;
75655;SDS011;64252;51.094;13.714;2023-04-25T14:45:07;8.82;;;2.15;;
75655;SDS011;64252;51.094;13.714;2023-04-25T14:47:34;8.13;;;1.98;;
75655;SDS011;64252;51.094;13.714;2023-04-25T14:50:01;9.52;;;2.30;;
75655;SDS011;64252;51.094;13.714;2023-04-25T14:52:27;11.20;;;3.20;;
75655;SDS011;64252;51.094;13.714;2023-04-25T14:54:53;5.22;;;2.00;;
75655;SDS011;64252;51.094;13.714;2023-04-25T14:57:19;8.93;;;2.72;;
75655;SDS011;64252;51.094;13.714;2023-04-25T14:59:44;6.18;;;2.10;;
75655;SDS011;64252;51.094;13.714;2023-04-25T15:02:10;7.75;;;2.15;;
75655;SDS011;64252;51.094;13.714;2023-04-25T15:04:37;7.00;;;1.80;;